Portada
METAR-TAF:

METAR-TAF

Aeroports :

Krasnodar, Rússia

latitud: 45-02N, longitud: 039-09E, altitud: 33 m

Observació

L'informe es va fer fa 31 minuts, a les 08:00 UTC
Vent 8 kt del Nord-Est, variant entre Nord/Nord-Est i Est
Temperatura 33°C
Humitat 39%
Pressió 1009 hPa
Visibilitat 10 km o més
sense núvols per sota de 1500 mi sense presència de cumulonimbus.

METAR: URKK 080800Z 05004MPS 020V090 CAVOK 33/17 Q1009 R05R/CLRD70 NOSIG RMK QFE754

Hora: 12:31 (08:31 UTC)

Pronòstic

L'informe es va fer fa 3 hores i 39 minuts, a les 04:52 UTC
Pronòstic vàlid del 08 a les 06 UTC al 09 a les 06 UTC
Vent 12 kt del Nord-Est amb ràfegues de 23 kt
Visibilitat 10 km o més
sense núvols per sota de 1500 mi sense presència de cumulonimbus.

TAF: URKK 080452Z 0806/0906 05006G12MPS CAVOK

Observacions i pronòstics meteorològics de més de 4000 aeroports (METAR i TAF).

Les estacions disponibles són els punts grocs i vermells al mapa.

Posi el ratolí al punt desitjat per veure el nom de l'estació.

Feu clic per veure les observacions i els pronòstics meteorològics.

Per canviar el mapa: feu clic els botons verds amb una creu de color negre per apropar; al botó verd amb un guió per allunyar la imatge; o en les fletxes verdes per a mapes adjacents.


METAR-TAF: